Hauptseite
METAR-TAF:

METAR-TAF

Flughäfen :

Fliegerhorst Landsberg/Lech

Landsberg, Deutschland

Breite: 48-04N, Länge: 010-54E, Höhe: 623 m

Beobachtung

Neuester Wetterbericht von vor 1 Stunde und 7 Minuten, um 07:20 UTC
Wind 11 kt aus West/Südwest
Temperatur 23°C
Luftfeuchtigkeit 61%
Luftdruck 1017 hPa
Sichtweite: 6000 m

METAR: ETSA 210720Z AUTO 24011KT 6000 // ////// 23/15 Q1017 ///

Zeit: 10:27 (08:27 UTC)


TAF: fehlend

Wetterbeobachtungen und Prognosen von mehr als 4000 Flughäfen (METAR und TAF Bericht).

Die verfügbaren Stationen werden durch gelbe und rote Markierungen auf der Karte dargestellt.

Führen Sie die Maus auf sie, um den Namen der Station zu sehen.

Darauf klicken, um die Beobachtung von Wetterbeobachtungen und Prognosen zu sehen.

Um die Karte zu ändern : klicken Sie auf den grünen Tasten mit einem schwarzen Kreuz Zum Vergrößern, auf den grünen Button mit einem Gedankenstrich zu verkleinern, oder auf die grünen Pfeile für benachbarte Karten.


METAR-TAF: